sensor_id;sensor_type;location;lat;lon;timestamp;P1;durP1;ratioP1;P2;durP2;ratioP2
20427;SDS011;10373;49.768;18.302;2022-07-06T00:01:32;4.65;;;4.03;;
20427;SDS011;10373;49.768;18.302;2022-07-06T00:03:58;4.28;;;3.60;;
20427;SDS011;10373;49.768;18.302;2022-07-06T00:06:24;4.35;;;4.00;;
20427;SDS011;10373;49.768;18.302;2022-07-06T00:08:50;4.50;;;4.10;;
20427;SDS011;10373;49.768;18.302;2022-07-06T00:11:16;5.60;;;4.65;;
20427;SDS011;10373;49.768;18.302;2022-07-06T00:13:42;4.32;;;3.92;;
20427;SDS011;10373;49.768;18.302;2022-07-06T00:16:07;3.78;;;3.47;;
20427;SDS011;10373;49.768;18.302;2022-07-06T00:18:33;3.80;;;3.42;;
20427;SDS011;10373;49.768;18.302;2022-07-06T00:20:59;4.15;;;3.60;;
20427;SDS011;10373;49.768;18.302;2022-07-06T00:23:25;3.63;;;3.33;;
20427;SDS011;10373;49.768;18.302;2022-07-06T00:25:50;4.60;;;3.50;;
20427;SDS011;10373;49.768;18.302;2022-07-06T00:28:16;3.42;;;3.00;;
20427;SDS011;10373;49.768;18.302;2022-07-06T00:30:42;5.00;;;3.25;;
20427;SDS011;10373;49.768;18.302;2022-07-06T00:33:08;3.47;;;3.17;;
20427;SDS011;10373;49.768;18.302;2022-07-06T00:35:34;2.95;;;2.75;;
20427;SDS011;10373;49.768;18.302;2022-07-06T00:37:59;3.28;;;3.03;;
20427;SDS011;10373;49.768;18.302;2022-07-06T00:40:25;6.68;;;3.33;;
20427;SDS011;10373;49.768;18.302;2022-07-06T00:42:51;3.17;;;2.90;;
20427;SDS011;10373;49.768;18.302;2022-07-06T00:45:17;3.45;;;3.15;;
20427;SDS011;10373;49.768;18.302;2022-07-06T00:47:44;4.13;;;2.80;;
20427;SDS011;10373;49.768;18.302;2022-07-06T00:50:10;3.20;;;2.92;;
20427;SDS011;10373;49.768;18.302;2022-07-06T00:52:55;3.15;;;2.90;;
20427;SDS011;10373;49.768;18.302;2022-07-06T00:55:29;5.15;;;2.90;;
20427;SDS011;10373;49.768;18.302;2022-07-06T00:58:03;3.38;;;3.08;;
20427;SDS011;10373;49.768;18.302;2022-07-06T01:00:29;4.07;;;3.20;;
20427;SDS011;10373;49.768;18.302;2022-07-06T01:02:56;4.05;;;3.17;;
20427;SDS011;10373;49.768;18.302;2022-07-06T01:05:22;4.03;;;3.03;;
20427;SDS011;10373;49.768;18.302;2022-07-06T01:07:48;3.22;;;2.92;;
20427;SDS011;10373;49.768;18.302;2022-07-06T01:10:18;3.92;;;2.90;;
20427;SDS011;10373;49.768;18.302;2022-07-06T01:12:45;3.95;;;2.80;;
20427;SDS011;10373;49.768;18.302;2022-07-06T01:17:44;3.50;;;3.20;;
20427;SDS011;10373;49.768;18.302;2022-07-06T01:20:11;3.60;;;3.15;;
20427;SDS011;10373;49.768;18.302;2022-07-06T01:22:41;3.40;;;3.10;;
20427;SDS011;10373;49.768;18.302;2022-07-06T01:25:08;6.05;;;3.55;;
20427;SDS011;10373;49.768;18.302;2022-07-06T01:27:34;3.20;;;2.90;;
20427;SDS011;10373;49.768;18.302;2022-07-06T01:30:07;3.63;;;2.92;;
20427;SDS011;10373;49.768;18.302;2022-07-06T01:32:37;4.03;;;3.05;;
20427;SDS011;10373;49.768;18.302;2022-07-06T01:35:04;3.78;;;2.85;;
20427;SDS011;10373;49.768;18.302;2022-07-06T01:37:31;3.17;;;2.83;;
20427;SDS011;10373;49.768;18.302;2022-07-06T01:39:58;3.65;;;3.35;;
20427;SDS011;10373;49.768;18.302;2022-07-06T01:42:24;3.10;;;2.90;;
20427;SDS011;10373;49.768;18.302;2022-07-06T01:44:50;3.88;;;2.78;;
20427;SDS011;10373;49.768;18.302;2022-07-06T01:47:16;3.08;;;2.60;;
20427;SDS011;10373;49.768;18.302;2022-07-06T01:49:42;2.92;;;2.72;;
20427;SDS011;10373;49.768;18.302;2022-07-06T01:52:07;3.30;;;3.00;;
20427;SDS011;10373;49.768;18.302;2022-07-06T01:54:33;2.88;;;2.65;;
20427;SDS011;10373;49.768;18.302;2022-07-06T01:56:59;3.10;;;2.83;;
20427;SDS011;10373;49.768;18.302;2022-07-06T01:59:24;3.05;;;2.85;;
20427;SDS011;10373;49.768;18.302;2022-07-06T02:01:50;3.75;;;3.00;;
20427;SDS011;10373;49.768;18.302;2022-07-06T02:04:16;3.08;;;2.88;;
20427;SDS011;10373;49.768;18.302;2022-07-06T02:06:41;3.50;;;3.30;;
20427;SDS011;10373;49.768;18.302;2022-07-06T02:09:07;3.67;;;3.22;;
20427;SDS011;10373;49.768;18.302;2022-07-06T02:11:33;3.40;;;3.10;;
20427;SDS011;10373;49.768;18.302;2022-07-06T02:13:58;3.05;;;2.85;;
20427;SDS011;10373;49.768;18.302;2022-07-06T02:16:24;3.13;;;2.92;;
20427;SDS011;10373;49.768;18.302;2022-07-06T02:18:50;3.42;;;3.10;;
20427;SDS011;10373;49.768;18.302;2022-07-06T02:21:16;2.72;;;2.53;;
20427;SDS011;10373;49.768;18.302;2022-07-06T02:23:41;2.83;;;2.63;;
20427;SDS011;10373;49.768;18.302;2022-07-06T02:26:07;3.00;;;2.70;;
20427;SDS011;10373;49.768;18.302;2022-07-06T02:28:33;3.00;;;2.80;;
20427;SDS011;10373;49.768;18.302;2022-07-06T02:30:58;3.05;;;2.85;;
20427;SDS011;10373;49.768;18.302;2022-07-06T02:33:24;3.45;;;3.15;;
20427;SDS011;10373;49.768;18.302;2022-07-06T02:35:50;3.08;;;2.78;;
20427;SDS011;10373;49.768;18.302;2022-07-06T02:38:15;3.95;;;3.17;;
20427;SDS011;10373;49.768;18.302;2022-07-06T02:40:41;3.55;;;3.25;;
20427;SDS011;10373;49.768;18.302;2022-07-06T02:43:07;3.72;;;3.05;;
20427;SDS011;10373;49.768;18.302;2022-07-06T02:45:32;3.17;;;2.72;;
20427;SDS011;10373;49.768;18.302;2022-07-06T02:47:58;3.35;;;3.00;;
20427;SDS011;10373;49.768;18.302;2022-07-06T02:50:24;3.05;;;2.78;;
20427;SDS011;10373;49.768;18.302;2022-07-06T02:52:50;3.10;;;2.83;;
20427;SDS011;10373;49.768;18.302;2022-07-06T02:55:16;3.03;;;2.83;;
20427;SDS011;10373;49.768;18.302;2022-07-06T02:57:42;3.45;;;3.15;;
20427;SDS011;10373;49.768;18.302;2022-07-06T03:00:08;3.28;;;2.42;;
20427;SDS011;10373;49.768;18.302;2022-07-06T03:02:35;3.92;;;3.08;;
20427;SDS011;10373;49.768;18.302;2022-07-06T03:05:01;3.03;;;2.83;;
20427;SDS011;10373;49.768;18.302;2022-07-06T03:07:27;5.78;;;2.95;;
20427;SDS011;10373;49.768;18.302;2022-07-06T03:09:53;3.10;;;2.85;;
20427;SDS011;10373;49.768;18.302;2022-07-06T03:12:18;4.75;;;3.10;;
20427;SDS011;10373;49.768;18.302;2022-07-06T03:14:44;5.07;;;2.90;;
20427;SDS011;10373;49.768;18.302;2022-07-06T03:17:10;2.90;;;2.70;;
20427;SDS011;10373;49.768;18.302;2022-07-06T03:19:35;2.80;;;2.60;;
20427;SDS011;10373;49.768;18.302;2022-07-06T03:22:01;3.45;;;2.47;;
20427;SDS011;10373;49.768;18.302;2022-07-06T03:24:27;3.22;;;2.78;;
20427;SDS011;10373;49.768;18.302;2022-07-06T03:26:53;3.55;;;3.03;;
20427;SDS011;10373;49.768;18.302;2022-07-06T03:29:19;2.80;;;2.55;;
20427;SDS011;10373;49.768;18.302;2022-07-06T03:31:45;2.97;;;2.60;;
20427;SDS011;10373;49.768;18.302;2022-07-06T03:34:11;4.57;;;2.50;;
20427;SDS011;10373;49.768;18.302;2022-07-06T03:36:37;2.83;;;2.60;;
20427;SDS011;10373;49.768;18.302;2022-07-06T03:39:04;3.50;;;2.75;;
20427;SDS011;10373;49.768;18.302;2022-07-06T03:41:30;2.38;;;2.28;;
20427;SDS011;10373;49.768;18.302;2022-07-06T03:43:57;3.13;;;2.83;;
20427;SDS011;10373;49.768;18.302;2022-07-06T03:46:23;3.90;;;3.08;;
20427;SDS011;10373;49.768;18.302;2022-07-06T03:48:49;3.30;;;3.10;;
20427;SDS011;10373;49.768;18.302;2022-07-06T03:51:14;3.00;;;2.72;;
20427;SDS011;10373;49.768;18.302;2022-07-06T03:53:40;4.07;;;2.65;;
20427;SDS011;10373;49.768;18.302;2022-07-06T03:56:06;2.70;;;2.50;;
20427;SDS011;10373;49.768;18.302;2022-07-06T03:58:50;3.65;;;2.80;;
20427;SDS011;10373;49.768;18.302;2022-07-06T04:01:16;2.80;;;2.60;;
20427;SDS011;10373;49.768;18.302;2022-07-06T04:03:42;2.40;;;2.30;;
20427;SDS011;10373;49.768;18.302;2022-07-06T04:06:07;3.22;;;2.90;;
20427;SDS011;10373;49.768;18.302;2022-07-06T04:08:33;2.58;;;2.38;;
20427;SDS011;10373;49.768;18.302;2022-07-06T04:10:59;4.65;;;2.70;;
20427;SDS011;10373;49.768;18.302;2022-07-06T04:13:24;3.00;;;2.72;;
20427;SDS011;10373;49.768;18.302;2022-07-06T04:15:50;2.80;;;2.60;;
20427;SDS011;10373;49.768;18.302;2022-07-06T04:18:16;2.72;;;2.53;;
20427;SDS011;10373;49.768;18.302;2022-07-06T04:20:42;2.78;;;2.58;;
20427;SDS011;10373;49.768;18.302;2022-07-06T04:23:08;2.78;;;2.58;;
20427;SDS011;10373;49.768;18.302;2022-07-06T04:25:34;3.00;;;2.80;;
20427;SDS011;10373;49.768;18.302;2022-07-06T04:27:59;3.20;;;2.78;;
20427;SDS011;10373;49.768;18.302;2022-07-06T04:30:25;5.00;;;2.80;;
20427;SDS011;10373;49.768;18.302;2022-07-06T04:32:51;3.38;;;3.08;;
20427;SDS011;10373;49.768;18.302;2022-07-06T04:35:17;3.83;;;2.92;;
20427;SDS011;10373;49.768;18.302;2022-07-06T04:37:43;3.13;;;2.92;;
20427;SDS011;10373;49.768;18.302;2022-07-06T04:40:10;3.55;;;3.25;;
20427;SDS011;10373;49.768;18.302;2022-07-06T04:42:37;3.30;;;3.00;;
20427;SDS011;10373;49.768;18.302;2022-07-06T04:45:03;5.35;;;3.10;;
20427;SDS011;10373;49.768;18.302;2022-07-06T04:47:29;3.58;;;3.13;;
20427;SDS011;10373;49.768;18.302;2022-07-06T04:49:55;4.78;;;3.40;;
20427;SDS011;10373;49.768;18.302;2022-07-06T04:52:21;4.50;;;3.08;;
20427;SDS011;10373;49.768;18.302;2022-07-06T04:54:47;4.45;;;3.38;;
20427;SDS011;10373;49.768;18.302;2022-07-06T04:57:12;3.65;;;3.33;;
20427;SDS011;10373;49.768;18.302;2022-07-06T04:59:38;3.88;;;3.08;;
20427;SDS011;10373;49.768;18.302;2022-07-06T05:02:04;4.63;;;3.13;;
20427;SDS011;10373;49.768;18.302;2022-07-06T05:04:30;4.57;;;3.70;;
20427;SDS011;10373;49.768;18.302;2022-07-06T05:06:56;5.72;;;4.60;;
20427;SDS011;10373;49.768;18.302;2022-07-06T05:09:22;7.57;;;4.75;;
20427;SDS011;10373;49.768;18.302;2022-07-06T05:11:47;8.50;;;5.63;;
20427;SDS011;10373;49.768;18.302;2022-07-06T05:14:13;7.10;;;5.03;;
20427;SDS011;10373;49.768;18.302;2022-07-06T05:16:39;7.60;;;6.80;;
20427;SDS011;10373;49.768;18.302;2022-07-06T05:19:04;7.45;;;6.30;;
20427;SDS011;10373;49.768;18.302;2022-07-06T05:21:30;7.72;;;6.22;;
20427;SDS011;10373;49.768;18.302;2022-07-06T05:23:56;8.98;;;6.85;;
20427;SDS011;10373;49.768;18.302;2022-07-06T05:26:22;8.07;;;5.80;;
20427;SDS011;10373;49.768;18.302;2022-07-06T05:28:47;10.75;;;6.47;;
20427;SDS011;10373;49.768;18.302;2022-07-06T05:31:13;6.47;;;5.78;;
20427;SDS011;10373;49.768;18.302;2022-07-06T05:33:38;7.88;;;5.65;;
20427;SDS011;10373;49.768;18.302;2022-07-06T05:36:04;6.68;;;5.40;;
20427;SDS011;10373;49.768;18.302;2022-07-06T05:38:30;8.23;;;4.95;;
20427;SDS011;10373;49.768;18.302;2022-07-06T05:40:56;7.55;;;5.68;;
20427;SDS011;10373;49.768;18.302;2022-07-06T05:43:21;6.38;;;5.50;;
20427;SDS011;10373;49.768;18.302;2022-07-06T05:45:47;7.05;;;5.07;;
20427;SDS011;10373;49.768;18.302;2022-07-06T05:48:13;7.20;;;5.88;;
20427;SDS011;10373;49.768;18.302;2022-07-06T05:50:57;7.60;;;6.22;;
20427;SDS011;10373;49.768;18.302;2022-07-06T05:53:22;9.10;;;6.50;;
20427;SDS011;10373;49.768;18.302;2022-07-06T05:55:48;7.93;;;6.28;;
20427;SDS011;10373;49.768;18.302;2022-07-06T05:58:14;16.73;;;11.65;;
20427;SDS011;10373;49.768;18.302;2022-07-06T06:00:40;15.20;;;9.90;;
20427;SDS011;10373;49.768;18.302;2022-07-06T06:03:05;10.77;;;7.90;;
20427;SDS011;10373;49.768;18.302;2022-07-06T06:05:31;10.40;;;7.00;;
20427;SDS011;10373;49.768;18.302;2022-07-06T06:07:57;6.80;;;5.70;;
20427;SDS011;10373;49.768;18.302;2022-07-06T06:10:23;8.50;;;6.63;;
20427;SDS011;10373;49.768;18.302;2022-07-06T06:12:49;11.52;;;7.80;;
20427;SDS011;10373;49.768;18.302;2022-07-06T06:15:15;8.45;;;5.82;;
20427;SDS011;10373;49.768;18.302;2022-07-06T06:17:41;5.28;;;4.78;;
20427;SDS011;10373;49.768;18.302;2022-07-06T06:20:07;7.50;;;4.90;;
20427;SDS011;10373;49.768;18.302;2022-07-06T06:25:41;5.43;;;4.93;;
20427;SDS011;10373;49.768;18.302;2022-07-06T06:28:07;5.30;;;3.55;;
20427;SDS011;10373;49.768;18.302;2022-07-06T06:30:34;9.15;;;6.53;;
20427;SDS011;10373;49.768;18.302;2022-07-06T06:33:10;5.13;;;4.63;;
20427;SDS011;10373;49.768;18.302;2022-07-06T06:35:46;6.68;;;4.70;;
20427;SDS011;10373;49.768;18.302;2022-07-06T06:38:14;5.35;;;4.22;;
20427;SDS011;10373;49.768;18.302;2022-07-06T06:40:40;7.78;;;3.75;;
20427;SDS011;10373;49.768;18.302;2022-07-06T06:43:06;3.58;;;3.28;;
20427;SDS011;10373;49.768;18.302;2022-07-06T06:45:32;6.35;;;2.95;;
20427;SDS011;10373;49.768;18.302;2022-07-06T06:47:58;3.47;;;2.70;;
20427;SDS011;10373;49.768;18.302;2022-07-06T06:50:23;3.80;;;2.38;;
20427;SDS011;10373;49.768;18.302;2022-07-06T06:52:49;3.40;;;2.60;;
20427;SDS011;10373;49.768;18.302;2022-07-06T06:55:16;4.88;;;2.72;;
20427;SDS011;10373;49.768;18.302;2022-07-06T06:57:42;2.78;;;2.03;;
20427;SDS011;10373;49.768;18.302;2022-07-06T07:00:08;2.75;;;2.55;;
20427;SDS011;10373;49.768;18.302;2022-07-06T07:02:34;4.95;;;2.72;;
20427;SDS011;10373;49.768;18.302;2022-07-06T07:05:00;2.55;;;2.10;;
20427;SDS011;10373;49.768;18.302;2022-07-06T07:07:25;1.95;;;1.85;;
20427;SDS011;10373;49.768;18.302;2022-07-06T07:09:51;3.22;;;2.20;;
20427;SDS011;10373;49.768;18.302;2022-07-06T07:12:17;2.40;;;2.20;;
20427;SDS011;10373;49.768;18.302;2022-07-06T07:14:43;2.60;;;2.40;;
20427;SDS011;10373;49.768;18.302;2022-07-06T07:17:09;4.22;;;2.30;;
20427;SDS011;10373;49.768;18.302;2022-07-06T07:19:36;4.72;;;2.25;;
20427;SDS011;10373;49.768;18.302;2022-07-06T07:22:02;2.90;;;2.30;;
20427;SDS011;10373;49.768;18.302;2022-07-06T07:24:28;3.63;;;2.30;;
20427;SDS011;10373;49.768;18.302;2022-07-06T07:26:54;3.15;;;2.00;;
20427;SDS011;10373;49.768;18.302;2022-07-06T07:29:20;2.45;;;2.20;;
20427;SDS011;10373;49.768;18.302;2022-07-06T07:31:46;3.08;;;2.28;;
20427;SDS011;10373;49.768;18.302;2022-07-06T07:34:12;1.75;;;1.65;;
20427;SDS011;10373;49.768;18.302;2022-07-06T07:36:37;2.00;;;1.83;;
20427;SDS011;10373;49.768;18.302;2022-07-06T07:39:03;2.30;;;2.08;;
20427;SDS011;10373;49.768;18.302;2022-07-06T07:41:29;2.00;;;1.83;;
20427;SDS011;10373;49.768;18.302;2022-07-06T07:43:55;3.33;;;2.05;;
20427;SDS011;10373;49.768;18.302;2022-07-06T07:46:21;1.60;;;1.50;;
20427;SDS011;10373;49.768;18.302;2022-07-06T07:48:47;1.55;;;1.45;;
20427;SDS011;10373;49.768;18.302;2022-07-06T07:51:12;1.45;;;1.35;;
20427;SDS011;10373;49.768;18.302;2022-07-06T07:53:38;1.35;;;1.30;;
20427;SDS011;10373;49.768;18.302;2022-07-06T07:56:04;2.58;;;1.10;;
20427;SDS011;10373;49.768;18.302;2022-07-06T07:58:30;1.40;;;1.30;;
20427;SDS011;10373;49.768;18.302;2022-07-06T08:00:55;1.77;;;1.60;;
20427;SDS011;10373;49.768;18.302;2022-07-06T08:03:21;1.48;;;1.38;;
20427;SDS011;10373;49.768;18.302;2022-07-06T08:05:47;2.50;;;1.30;;
20427;SDS011;10373;49.768;18.302;2022-07-06T08:08:13;1.60;;;1.50;;
20427;SDS011;10373;49.768;18.302;2022-07-06T08:10:39;1.55;;;1.45;;
20427;SDS011;10373;49.768;18.302;2022-07-06T08:13:05;1.67;;;1.45;;
20427;SDS011;10373;49.768;18.302;2022-07-06T08:15:32;1.80;;;1.70;;
20427;SDS011;10373;49.768;18.302;2022-07-06T08:17:58;2.47;;;1.50;;
20427;SDS011;10373;49.768;18.302;2022-07-06T08:20:24;1.45;;;1.35;;
20427;SDS011;10373;49.768;18.302;2022-07-06T08:22:49;2.50;;;1.42;;
20427;SDS011;10373;49.768;18.302;2022-07-06T08:25:15;1.63;;;1.52;;
20427;SDS011;10373;49.768;18.302;2022-07-06T08:27:42;1.60;;;1.50;;
20427;SDS011;10373;49.768;18.302;2022-07-06T08:30:08;1.80;;;1.70;;
20427;SDS011;10373;49.768;18.302;2022-07-06T08:32:38;1.52;;;1.42;;
20427;SDS011;10373;49.768;18.302;2022-07-06T08:35:05;2.05;;;1.65;;
20427;SDS011;10373;49.768;18.302;2022-07-06T08:37:31;1.67;;;1.58;;
20427;SDS011;10373;49.768;18.302;2022-07-06T08:39:57;1.33;;;1.23;;
20427;SDS011;10373;49.768;18.302;2022-07-06T08:42:23;1.50;;;1.40;;
20427;SDS011;10373;49.768;18.302;2022-07-06T08:45:01;1.27;;;1.17;;
20427;SDS011;10373;49.768;18.302;2022-07-06T08:47:30;1.38;;;1.30;;
20427;SDS011;10373;49.768;18.302;2022-07-06T08:49:56;1.73;;;1.63;;
20427;SDS011;10373;49.768;18.302;2022-07-06T08:52:23;1.70;;;1.60;;
20427;SDS011;10373;49.768;18.302;2022-07-06T08:54:49;1.58;;;1.40;;
20427;SDS011;10373;49.768;18.302;2022-07-06T08:57:14;1.58;;;1.48;;
20427;SDS011;10373;49.768;18.302;2022-07-06T08:59:40;1.40;;;1.30;;
20427;SDS011;10373;49.768;18.302;2022-07-06T09:02:06;1.58;;;1.48;;
20427;SDS011;10373;49.768;18.302;2022-07-06T09:04:34;1.45;;;1.35;;
20427;SDS011;10373;49.768;18.302;2022-07-06T09:07:01;1.50;;;1.40;;
20427;SDS011;10373;49.768;18.302;2022-07-06T09:09:28;1.40;;;1.30;;
20427;SDS011;10373;49.768;18.302;2022-07-06T09:11:58;1.42;;;1.33;;
20427;SDS011;10373;49.768;18.302;2022-07-06T09:14:24;1.48;;;1.38;;
20427;SDS011;10373;49.768;18.302;2022-07-06T09:17:01;1.58;;;1.45;;
20427;SDS011;10373;49.768;18.302;2022-07-06T09:19:31;1.42;;;1.33;;
20427;SDS011;10373;49.768;18.302;2022-07-06T09:21:57;1.23;;;1.08;;
20427;SDS011;10373;49.768;18.302;2022-07-06T09:24:24;1.63;;;1.40;;
20427;SDS011;10373;49.768;18.302;2022-07-06T09:26:51;1.70;;;1.60;;
20427;SDS011;10373;49.768;18.302;2022-07-06T09:29:26;1.60;;;1.50;;
20427;SDS011;10373;49.768;18.302;2022-07-06T09:32:00;1.55;;;1.45;;
20427;SDS011;10373;49.768;18.302;2022-07-06T09:34:44;1.67;;;1.58;;
20427;SDS011;10373;49.768;18.302;2022-07-06T09:37:11;1.58;;;1.48;;
20427;SDS011;10373;49.768;18.302;2022-07-06T09:39:38;1.60;;;1.50;;
20427;SDS011;10373;49.768;18.302;2022-07-06T09:42:05;1.75;;;1.65;;
20427;SDS011;10373;49.768;18.302;2022-07-06T09:44:37;1.50;;;1.40;;
20427;SDS011;10373;49.768;18.302;2022-07-06T09:47:05;3.53;;;1.58;;
20427;SDS011;10373;49.768;18.302;2022-07-06T09:49:33;1.80;;;1.48;;
20427;SDS011;10373;49.768;18.302;2022-07-06T09:51:59;1.35;;;1.25;;
20427;SDS011;10373;49.768;18.302;2022-07-06T09:54:27;1.60;;;1.25;;
20427;SDS011;10373;49.768;18.302;2022-07-06T09:56:53;1.23;;;1.20;;
20427;SDS011;10373;49.768;18.302;2022-07-06T09:59:24;1.27;;;1.17;;
20427;SDS011;10373;49.768;18.302;2022-07-06T10:01:55;1.23;;;1.13;;
20427;SDS011;10373;49.768;18.302;2022-07-06T10:04:23;1.00;;;0.90;;
20427;SDS011;10373;49.768;18.302;2022-07-06T10:06:50;2.15;;;1.08;;
20427;SDS011;10373;49.768;18.302;2022-07-06T10:09:17;1.77;;;1.00;;
20427;SDS011;10373;49.768;18.302;2022-07-06T10:11:46;1.10;;;1.10;;
20427;SDS011;10373;49.768;18.302;2022-07-06T10:14:15;1.33;;;1.20;;
20427;SDS011;10373;49.768;18.302;2022-07-06T10:16:45;1.05;;;1.02;;
20427;SDS011;10373;49.768;18.302;2022-07-06T10:19:12;1.13;;;1.00;;
20427;SDS011;10373;49.768;18.302;2022-07-06T10:21:39;1.40;;;1.30;;
20427;SDS011;10373;49.768;18.302;2022-07-06T10:24:06;1.20;;;1.10;;
20427;SDS011;10373;49.768;18.302;2022-07-06T10:26:33;1.30;;;1.20;;
20427;SDS011;10373;49.768;18.302;2022-07-06T10:29:04;1.77;;;1.02;;
20427;SDS011;10373;49.768;18.302;2022-07-06T10:31:31;1.00;;;0.90;;
20427;SDS011;10373;49.768;18.302;2022-07-06T10:33:59;1.52;;;0.90;;
20427;SDS011;10373;49.768;18.302;2022-07-06T10:36:28;0.80;;;0.80;;
20427;SDS011;10373;49.768;18.302;2022-07-06T10:38:54;1.10;;;1.00;;
20427;SDS011;10373;49.768;18.302;2022-07-06T10:41:30;1.33;;;1.00;;
20427;SDS011;10373;49.768;18.302;2022-07-06T10:43:57;0.95;;;0.95;;
20427;SDS011;10373;49.768;18.302;2022-07-06T10:46:24;1.60;;;1.00;;
20427;SDS011;10373;49.768;18.302;2022-07-06T10:48:54;1.10;;;1.10;;
20427;SDS011;10373;49.768;18.302;2022-07-06T10:53:56;1.63;;;1.13;;
20427;SDS011;10373;49.768;18.302;2022-07-06T10:56:40;1.23;;;1.08;;
20427;SDS011;10373;49.768;18.302;2022-07-06T11:01:40;2.75;;;1.30;;
20427;SDS011;10373;49.768;18.302;2022-07-06T11:04:13;1.30;;;1.20;;
20427;SDS011;10373;49.768;18.302;2022-07-06T11:06:40;1.10;;;1.10;;
20427;SDS011;10373;49.768;18.302;2022-07-06T11:09:06;1.20;;;1.10;;
20427;SDS011;10373;49.768;18.302;2022-07-06T11:14:01;1.25;;;1.05;;
20427;SDS011;10373;49.768;18.302;2022-07-06T11:19:13;1.20;;;1.10;;
20427;SDS011;10373;49.768;18.302;2022-07-06T11:24:17;1.50;;;1.17;;
20427;SDS011;10373;49.768;18.302;2022-07-06T11:26:48;1.13;;;1.00;;
20427;SDS011;10373;49.768;18.302;2022-07-06T11:29:15;1.20;;;1.02;;
20427;SDS011;10373;49.768;18.302;2022-07-06T11:31:46;0.90;;;0.90;;
20427;SDS011;10373;49.768;18.302;2022-07-06T11:34:14;1.58;;;1.10;;
20427;SDS011;10373;49.768;18.302;2022-07-06T11:36:59;1.08;;;1.00;;
20427;SDS011;10373;49.768;18.302;2022-07-06T11:39:33;0.88;;;0.88;;
20427;SDS011;10373;49.768;18.302;2022-07-06T11:42:00;2.22;;;1.00;;
20427;SDS011;10373;49.768;18.302;2022-07-06T11:44:29;1.02;;;0.80;;
20427;SDS011;10373;49.768;18.302;2022-07-06T11:46:55;2.05;;;0.82;;
20427;SDS011;10373;49.768;18.302;2022-07-06T11:49:27;0.77;;;0.77;;
20427;SDS011;10373;49.768;18.302;2022-07-06T11:51:53;1.45;;;1.08;;
20427;SDS011;10373;49.768;18.302;2022-07-06T11:54:19;1.00;;;0.95;;
20427;SDS011;10373;49.768;18.302;2022-07-06T11:56:47;2.28;;;1.20;;
20427;SDS011;10373;49.768;18.302;2022-07-06T11:59:20;1.08;;;0.98;;
20427;SDS011;10373;49.768;18.302;2022-07-06T12:01:59;1.00;;;0.90;;
20427;SDS011;10373;49.768;18.302;2022-07-06T12:04:26;0.90;;;0.90;;
20427;SDS011;10373;49.768;18.302;2022-07-06T12:06:52;2.25;;;1.45;;
20427;SDS011;10373;49.768;18.302;2022-07-06T12:09:18;1.27;;;1.00;;
20427;SDS011;10373;49.768;18.302;2022-07-06T12:11:45;2.45;;;1.25;;
20427;SDS011;10373;49.768;18.302;2022-07-06T12:14:13;2.03;;;1.08;;
20427;SDS011;10373;49.768;18.302;2022-07-06T12:16:39;2.53;;;1.10;;
20427;SDS011;10373;49.768;18.302;2022-07-06T12:19:05;1.48;;;1.10;;
20427;SDS011;10373;49.768;18.302;2022-07-06T12:21:32;2.65;;;1.20;;
20427;SDS011;10373;49.768;18.302;2022-07-06T12:23:59;1.20;;;1.10;;
20427;SDS011;10373;49.768;18.302;2022-07-06T12:26:26;1.13;;;1.02;;
20427;SDS011;10373;49.768;18.302;2022-07-06T12:28:59;0.90;;;0.90;;
20427;SDS011;10373;49.768;18.302;2022-07-06T12:31:32;1.20;;;1.10;;
20427;SDS011;10373;49.768;18.302;2022-07-06T12:34:11;1.98;;;1.00;;
20427;SDS011;10373;49.768;18.302;2022-07-06T12:39:12;2.05;;;0.93;;
20427;SDS011;10373;49.768;18.302;2022-07-06T12:41:46;1.10;;;1.00;;
20427;SDS011;10373;49.768;18.302;2022-07-06T12:44:16;2.10;;;1.25;;
20427;SDS011;10373;49.768;18.302;2022-07-06T12:46:44;1.20;;;1.10;;
20427;SDS011;10373;49.768;18.302;2022-07-06T12:49:14;1.38;;;1.15;;
20427;SDS011;10373;49.768;18.302;2022-07-06T12:54:15;1.13;;;1.02;;
20427;SDS011;10373;49.768;18.302;2022-07-06T12:59:35;1.05;;;0.95;;
20427;SDS011;10373;49.768;18.302;2022-07-06T13:02:04;1.13;;;0.80;;
20427;SDS011;10373;49.768;18.302;2022-07-06T13:04:30;1.77;;;0.90;;
20427;SDS011;10373;49.768;18.302;2022-07-06T13:06:57;1.13;;;0.82;;
20427;SDS011;10373;49.768;18.302;2022-07-06T13:09:24;2.00;;;0.82;;
20427;SDS011;10373;49.768;18.302;2022-07-06T13:11:50;0.85;;;0.60;;
20427;SDS011;10373;49.768;18.302;2022-07-06T13:14:17;0.70;;;0.70;;
20427;SDS011;10373;49.768;18.302;2022-07-06T13:16:44;0.88;;;0.88;;
20427;SDS011;10373;49.768;18.302;2022-07-06T13:19:11;0.90;;;0.90;;
20427;SDS011;10373;49.768;18.302;2022-07-06T13:21:37;2.53;;;1.00;;
20427;SDS011;10373;49.768;18.302;2022-07-06T13:24:03;0.80;;;0.80;;
20427;SDS011;10373;49.768;18.302;2022-07-06T13:26:30;0.93;;;0.70;;
20427;SDS011;10373;49.768;18.302;2022-07-06T13:29:02;0.70;;;0.70;;
20427;SDS011;10373;49.768;18.302;2022-07-06T13:31:29;0.85;;;0.80;;
20427;SDS011;10373;49.768;18.302;2022-07-06T13:33:55;0.80;;;0.80;;
20427;SDS011;10373;49.768;18.302;2022-07-06T13:36:21;0.60;;;0.60;;
20427;SDS011;10373;49.768;18.302;2022-07-06T13:38:48;1.98;;;0.90;;
20427;SDS011;10373;49.768;18.302;2022-07-06T13:41:14;0.85;;;0.80;;
20427;SDS011;10373;49.768;18.302;2022-07-06T13:43:39;0.65;;;0.63;;
20427;SDS011;10373;49.768;18.302;2022-07-06T13:46:06;0.68;;;0.60;;
20427;SDS011;10373;49.768;18.302;2022-07-06T13:48:33;1.05;;;0.95;;
20427;SDS011;10373;49.768;18.302;2022-07-06T13:50:59;0.70;;;0.63;;
20427;SDS011;10373;49.768;18.302;2022-07-06T13:53:26;1.58;;;0.80;;
20427;SDS011;10373;49.768;18.302;2022-07-06T13:55:52;1.40;;;1.00;;
20427;SDS011;10373;49.768;18.302;2022-07-06T13:58:18;1.63;;;1.27;;
20427;SDS011;10373;49.768;18.302;2022-07-06T14:00:44;2.15;;;1.70;;
20427;SDS011;10373;49.768;18.302;2022-07-06T14:03:10;2.28;;;1.50;;
20427;SDS011;10373;49.768;18.302;2022-07-06T14:05:36;1.67;;;1.10;;
20427;SDS011;10373;49.768;18.302;2022-07-06T14:08:02;0.80;;;0.80;;
20427;SDS011;10373;49.768;18.302;2022-07-06T14:10:27;0.77;;;0.77;;
20427;SDS011;10373;49.768;18.302;2022-07-06T14:12:53;1.05;;;0.77;;
20427;SDS011;10373;49.768;18.302;2022-07-06T14:15:19;2.05;;;0.70;;
20427;SDS011;10373;49.768;18.302;2022-07-06T14:17:45;0.50;;;0.50;;
20427;SDS011;10373;49.768;18.302;2022-07-06T14:20:12;0.68;;;0.68;;
20427;SDS011;10373;49.768;18.302;2022-07-06T14:22:39;0.70;;;0.70;;
20427;SDS011;10373;49.768;18.302;2022-07-06T14:25:05;2.35;;;0.80;;
20427;SDS011;10373;49.768;18.302;2022-07-06T14:27:32;1.02;;;0.50;;
20427;SDS011;10373;49.768;18.302;2022-07-06T14:30:01;1.75;;;0.60;;
20427;SDS011;10373;49.768;18.302;2022-07-06T14:32:27;0.70;;;0.70;;
20427;SDS011;10373;49.768;18.302;2022-07-06T14:34:52;0.80;;;0.70;;
20427;SDS011;10373;49.768;18.302;2022-07-06T14:37:18;0.82;;;0.80;;
20427;SDS011;10373;49.768;18.302;2022-07-06T14:39:44;2.35;;;0.90;;
20427;SDS011;10373;49.768;18.302;2022-07-06T14:42:13;1.90;;;0.80;;
20427;SDS011;10373;49.768;18.302;2022-07-06T14:44:39;0.60;;;0.60;;
20427;SDS011;10373;49.768;18.302;2022-07-06T14:47:05;0.77;;;0.70;;
20427;SDS011;10373;49.768;18.302;2022-07-06T14:49:31;0.65;;;0.65;;
20427;SDS011;10373;49.768;18.302;2022-07-06T14:51:57;0.50;;;0.50;;
20427;SDS011;10373;49.768;18.302;2022-07-06T14:54:23;1.25;;;0.85;;
20427;SDS011;10373;49.768;18.302;2022-07-06T14:56:49;2.05;;;0.90;;
20427;SDS011;10373;49.768;18.302;2022-07-06T14:59:15;0.80;;;0.80;;